Terminal Aerodrome Forecast
Issued by NWS

Home | Current Version | Previous Version | Text Only | Print | Product List | Glossary Off
Versions: 1 2 3 4 5 6 7 8 9 10 11 12 13 14 15

000
FTUS42 KMHX 220522
TAFISO
TAF
KISO 220522Z 2206/2306 03007KT 5SM SHRA SCT030 OVC060
     FM220800 02008KT 6SM SHRA SCT015 OVC040
     FM221100 01014KT P6SM SCT015 OVC045
     FM221400 01014G24KT P6SM SCT050
     FM222300 03005KT P6SM SKC
      AMD LTD TO CLD VIS AND WIND=

USA.gov is the U.S. government's official web portal to all federal, state and local government web resources and services.